Time;durP1;ratioP1;P1;durP2;ratioP2;P2;SDS_P1;SDS_P2;PMS_P1;PMS_P2;Temp;Humidity;BMP_temperature;BMP_pressure;BME280_temperature;BME280_humidity;BME280_pressure;Samples;Min_cycle;Max_cycle;Signal;HPM_P1;HPM_P2
2020/12/11 00:00:55;;;;;;;44.57;23.17;;;2.50;90.70;;;;;;5078820;28;20507;-80
2020/12/11 00:03:22;;;;;;;50.43;24.30;;;2.50;90.80;;;;;;5083353;28;20458;-79
2020/12/11 00:05:48;;;;;;;47.93;23.07;;;2.50;90.60;;;;;;5080879;28;20463;-80
2020/12/11 00:08:16;;;;;;;39.60;22.50;;;2.50;91.30;;;;;;5071295;28;20473;-79
2020/12/11 00:10:42;;;;;;;46.03;22.97;;;2.50;90.80;;;;;;5078875;28;20495;-80
2020/12/11 00:13:08;;;;;;;39.93;21.73;;;2.50;91.00;;;;;;5072103;28;20484;-79
2020/12/11 00:15:35;;;;;;;47.23;24.17;;;2.50;90.80;;;;;;5072656;28;20517;-79
2020/12/11 00:18:01;;;;;;;46.17;22.67;;;2.50;90.70;;;;;;5080094;28;20458;-80
2020/12/11 00:20:28;;;;;;;51.00;21.33;;;2.50;90.40;;;;;;5068425;28;20452;-80
2020/12/11 00:22:54;;;;;;;45.47;22.00;;;2.60;90.40;;;;;;5074837;28;20447;-79
2020/12/11 00:25:21;;;;;;;48.10;22.90;;;2.60;90.60;;;;;;5075067;28;20443;-80
2020/12/11 00:27:48;;;;;;;43.43;20.33;;;2.50;90.50;;;;;;5069645;28;20487;-80
2020/12/11 00:30:14;;;;;;;42.83;22.07;;;2.50;90.90;;;;;;5076422;28;20439;-80
2020/12/11 00:32:41;;;;;;;40.50;20.37;;;2.50;90.90;;;;;;5076583;28;20454;-81
2020/12/11 00:35:08;;;;;;;38.30;19.83;;;2.50;90.00;;;;;;5067638;28;20459;-80
2020/12/11 00:37:35;;;;;;;41.97;21.03;;;2.50;90.20;;;;;;5075321;28;20446;-80
2020/12/11 00:40:01;;;;;;;32.27;17.67;;;2.50;90.10;;;;;;5080851;28;20489;-80
2020/12/11 00:42:29;;;;;;;37.77;18.20;;;2.60;90.00;;;;;;5078282;28;20455;-79
2020/12/11 00:44:55;;;;;;;39.60;19.40;;;2.50;90.00;;;;;;5080575;28;20520;-80
2020/12/11 00:47:22;;;;;;;40.03;19.03;;;2.50;89.80;;;;;;5070603;28;20977;-80
2020/12/11 00:49:48;;;;;;;37.43;19.57;;;2.50;90.20;;;;;;5070459;28;20482;-80
2020/12/11 00:52:14;;;;;;;38.70;18.67;;;2.50;90.20;;;;;;5077786;28;20454;-80
2020/12/11 00:54:41;;;;;;;44.23;20.13;;;2.30;91.10;;;;;;5065120;28;20442;-80
2020/12/11 00:57:07;;;;;;;47.03;21.37;;;2.40;91.70;;;;;;5059585;28;20454;-80
2020/12/11 00:59:34;;;;;;;45.17;19.37;;;2.40;91.70;;;;;;5067451;28;20543;-80
2020/12/11 01:02:01;;;;;;;41.67;19.77;;;2.40;91.60;;;;;;5062895;28;20442;-79
2020/12/11 01:04:27;;;;;;;39.93;19.67;;;2.40;91.70;;;;;;5066610;28;20458;-81
2020/12/11 01:06:54;;;;;;;46.20;20.70;;;2.30;92.10;;;;;;5062947;28;20459;-80
2020/12/11 01:09:20;;;;;;;37.13;19.93;;;2.30;92.40;;;;;;5060902;28;20463;-79
2020/12/11 01:11:46;;;;;;;41.90;17.73;;;2.40;91.90;;;;;;5069749;28;21009;-79
2020/12/11 01:14:13;;;;;;;39.50;18.90;;;2.30;91.60;;;;;;5068811;28;20499;-80
2020/12/11 01:16:40;;;;;;;41.20;20.17;;;2.20;92.10;;;;;;5062799;28;20496;-79
2020/12/11 01:19:06;;;;;;;42.40;19.73;;;2.20;92.20;;;;;;5068143;28;20475;-80
2020/12/11 01:21:33;;;;;;;37.93;18.97;;;2.10;92.60;;;;;;5070500;28;20470;-78
2020/12/11 01:23:59;;;;;;;38.27;18.07;;;2.20;92.90;;;;;;5062302;28;20451;-79
2020/12/11 01:26:26;;;;;;;42.50;18.20;;;2.30;92.50;;;;;;5058817;28;20441;-79
2020/12/11 01:28:52;;;;;;;40.73;19.27;;;2.30;92.20;;;;;;5057032;28;20500;-79
2020/12/11 01:31:19;;;;;;;40.70;17.70;;;2.40;91.90;;;;;;5068273;28;20461;-79
2020/12/11 01:33:48;;;;;;;39.20;17.97;;;2.30;91.70;;;;;;5063098;28;20490;-79
2020/12/11 01:36:15;;;;;;;35.57;16.40;;;2.40;91.90;;;;;;5055169;28;20535;-79
2020/12/11 01:38:41;;;;;;;37.40;17.03;;;2.40;91.50;;;;;;5063634;28;20443;-79
2020/12/11 01:41:08;;;;;;;43.33;18.50;;;2.40;91.50;;;;;;5062792;28;21429;-81
2020/12/11 01:43:34;;;;;;;37.50;17.90;;;2.50;91.60;;;;;;5060577;28;20447;-80
2020/12/11 01:46:01;;;;;;;40.03;18.30;;;2.40;90.80;;;;;;5056540;28;20459;-79
2020/12/11 01:48:27;;;;;;;37.37;19.07;;;2.40;91.00;;;;;;5059507;28;20477;-80
2020/12/11 01:50:55;;;;;;;36.53;17.83;;;2.40;90.90;;;;;;5065920;28;20505;-79
2020/12/11 01:53:22;;;;;;;36.97;18.23;;;2.40;91.00;;;;;;5055935;28;20849;-79
2020/12/11 01:55:50;;;;;;;32.03;16.60;;;2.40;90.80;;;;;;5068314;28;20454;-79
2020/12/11 01:58:20;;;;;;;30.63;15.37;;;2.40;91.00;;;;;;5061235;28;20469;-78
2020/12/11 02:00:47;;;;;;;32.57;16.23;;;2.40;90.80;;;;;;5064220;28;20477;-79
2020/12/11 02:03:14;;;;;;;33.60;16.90;;;2.40;90.70;;;;;;5057044;28;20546;-80
2020/12/11 02:05:41;;;;;;;33.63;16.90;;;2.40;91.20;;;;;;5065338;28;20447;-80
2020/12/11 02:08:08;;;;;;;33.87;16.10;;;2.40;90.60;;;;;;5064006;28;20815;-80
2020/12/11 02:10:35;;;;;;;38.50;16.10;;;2.40;90.70;;;;;;5061135;28;20864;-80
2020/12/11 02:13:08;;;;;;;30.80;15.93;;;2.40;90.80;;;;;;5065639;28;20453;-80
2020/12/11 02:15:35;;;;;;;34.07;15.57;;;2.40;90.90;;;;;;5061902;28;20454;-80
2020/12/11 02:18:02;;;;;;;39.10;18.00;;;2.40;91.00;;;;;;5060339;28;20489;-80
2020/12/11 02:20:28;;;;;;;36.77;16.30;;;2.40;90.70;;;;;;5064158;28;20951;-79
2020/12/11 02:22:55;;;;;;;36.77;16.03;;;2.40;90.60;;;;;;5062862;28;20446;-80
2020/12/11 02:25:22;;;;;;;28.30;15.27;;;2.40;90.70;;;;;;5059715;28;20966;-80
2020/12/11 02:27:48;;;;;;;35.53;16.67;;;2.40;90.90;;;;;;5061022;28;20511;-80
2020/12/11 02:30:15;;;;;;;33.17;16.63;;;2.40;90.60;;;;;;5062418;28;20462;-80
2020/12/11 02:32:42;;;;;;;32.40;15.23;;;2.40;90.90;;;;;;5061439;28;20453;-79
2020/12/11 02:35:08;;;;;;;35.93;15.73;;;2.40;90.70;;;;;;5062940;28;20497;-79
2020/12/11 02:37:36;;;;;;;32.80;15.90;;;2.40;90.90;;;;;;5066544;28;20479;-79
2020/12/11 02:40:05;;;;;;;36.40;18.30;;;2.40;90.60;;;;;;5062422;28;20455;-79
2020/12/11 02:42:31;;;;;;;31.57;15.10;;;2.40;90.70;;;;;;5065055;28;20546;-79
2020/12/11 02:44:57;;;;;;;31.87;15.50;;;2.40;90.70;;;;;;5062836;28;20553;-80
2020/12/11 02:47:24;;;;;;;34.90;15.30;;;2.50;90.80;;;;;;5070627;28;20441;-79
2020/12/11 02:49:51;;;;;;;37.27;16.53;;;2.50;90.60;;;;;;5060645;28;20486;-79
2020/12/11 02:52:17;;;;;;;30.00;16.00;;;2.50;90.80;;;;;;5061276;28;20471;-79
2020/12/11 02:54:43;;;;;;;33.03;14.80;;;2.50;90.90;;;;;;5056821;28;20463;-79
2020/12/11 02:57:11;;;;;;;33.37;16.03;;;2.40;91.30;;;;;;5061134;28;20454;-80
2020/12/11 02:59:37;;;;;;;36.10;15.30;;;2.40;91.40;;;;;;5067826;28;20575;-79
2020/12/11 03:02:03;;;;;;;30.57;15.23;;;2.40;91.50;;;;;;5062708;28;20463;-80
2020/12/11 03:04:30;;;;;;;35.97;14.53;;;2.40;91.60;;;;;;5057120;28;21162;-80
2020/12/11 03:06:56;;;;;;;30.30;15.13;;;2.50;91.80;;;;;;5062140;28;20465;-81
2020/12/11 03:09:22;;;;;;;33.80;14.50;;;2.40;92.00;;;;;;5069906;28;20847;-80
2020/12/11 03:11:49;;;;;;;32.77;15.63;;;2.40;91.80;;;;;;5056428;28;21241;-80
2020/12/11 03:14:16;;;;;;;32.07;15.97;;;2.40;92.30;;;;;;5062036;28;20473;-80
2020/12/11 03:16:42;;;;;;;38.43;16.00;;;2.40;93.40;;;;;;5056988;28;20466;-80
2020/12/11 03:19:09;;;;;;;35.07;14.80;;;2.40;93.30;;;;;;5058446;28;20445;-81
2020/12/11 03:21:36;;;;;;;36.10;16.00;;;2.40;93.50;;;;;;5057183;28;20473;-80
2020/12/11 03:24:02;;;;;;;32.70;13.90;;;2.40;94.00;;;;;;5056472;28;20760;-79
2020/12/11 03:26:28;;;;;;;35.80;16.70;;;2.20;94.30;;;;;;5064208;28;20539;-79
2020/12/11 03:28:55;;;;;;;34.10;14.63;;;2.30;96.00;;;;;;5061752;28;20488;-79
2020/12/11 03:31:22;;;;;;;35.53;14.47;;;2.20;95.90;;;;;;5058464;28;20499;-80
2020/12/11 03:33:48;;;;;;;33.17;15.13;;;2.10;97.30;;;;;;5055077;28;20464;-79
2020/12/11 03:36:22;;;;;;;32.20;15.43;;;2.20;97.60;;;;;;5058138;28;20447;-79
2020/12/11 03:38:49;;;;;;;32.37;13.97;;;2.20;97.20;;;;;;5057442;28;20457;-79
2020/12/11 03:41:15;;;;;;;36.10;14.27;;;2.30;95.60;;;;;;5062915;28;20491;-79
2020/12/11 03:43:42;;;;;;;31.17;14.40;;;2.30;95.00;;;;;;5063009;28;20452;-80
2020/12/11 03:46:08;;;;;;;28.47;13.77;;;2.30;93.70;;;;;;5070470;28;20474;-79
2020/12/11 03:48:36;;;;;;;31.20;14.87;;;2.30;94.20;;;;;;5074080;28;21090;-80
2020/12/11 03:51:02;;;;;;;31.90;14.77;;;2.20;93.80;;;;;;5077149;28;20441;-80
2020/12/11 03:53:29;;;;;;;35.83;13.43;;;2.20;94.20;;;;;;5065181;28;20944;-79
2020/12/11 03:55:57;;;;;;;32.03;13.40;;;2.20;94.20;;;;;;5063279;28;20961;-79
2020/12/11 03:58:24;;;;;;;29.27;14.30;;;2.20;94.00;;;;;;5066546;28;21819;-79
2020/12/11 04:00:50;;;;;;;28.63;13.77;;;2.30;94.10;;;;;;5070035;28;20478;-80
2020/12/11 04:03:17;;;;;;;28.03;14.63;;;2.20;93.80;;;;;;5076735;28;20444;-79
2020/12/11 04:05:44;;;;;;;33.13;14.20;;;2.20;93.80;;;;;;5064346;28;20863;-79
2020/12/11 04:08:11;;;;;;;27.97;14.40;;;2.20;94.40;;;;;;5068080;28;20793;-79
2020/12/11 04:10:37;;;;;;;30.00;13.57;;;2.20;94.00;;;;;;5060509;28;20461;-79
2020/12/11 04:13:03;;;;;;;25.30;13.03;;;2.20;94.20;;;;;;5062361;28;20443;-79
2020/12/11 04:15:30;;;;;;;28.97;15.07;;;2.20;94.00;;;;;;5061175;28;20761;-79
2020/12/11 04:17:56;;;;;;;22.03;12.90;;;2.20;93.40;;;;;;5058881;28;20438;-79
2020/12/11 04:20:22;;;;;;;26.83;13.63;;;2.20;93.50;;;;;;5059798;28;20457;-79
2020/12/11 04:22:50;;;;;;;26.57;13.63;;;2.20;93.30;;;;;;5066887;28;20507;-79
2020/12/11 04:25:16;;;;;;;25.40;13.33;;;2.30;93.30;;;;;;5065816;28;20451;-81
2020/12/11 04:27:42;;;;;;;27.07;14.90;;;2.30;93.00;;;;;;5067918;28;21046;-82
2020/12/11 04:30:09;;;;;;;24.40;13.70;;;2.20;92.80;;;;;;5063304;28;21175;-81
2020/12/11 04:32:35;;;;;;;30.47;14.73;;;2.20;92.70;;;;;;5066986;28;20441;-83
2020/12/11 04:35:02;;;;;;;23.97;14.23;;;2.20;92.10;;;;;;5069659;28;20455;-81
2020/12/11 04:37:28;;;;;;;27.47;13.97;;;2.20;91.10;;;;;;5075908;28;20474;-82
2020/12/11 04:39:55;;;;;;;25.13;13.87;;;2.20;90.40;;;;;;5069507;28;20490;-82
2020/12/11 04:42:23;;;;;;;25.73;14.60;;;2.20;90.20;;;;;;5073967;28;20436;-81
2020/12/11 04:44:49;;;;;;;24.80;13.20;;;2.30;90.00;;;;;;5070822;28;20858;-80
2020/12/11 04:47:18;;;;;;;23.77;13.60;;;2.30;88.90;;;;;;5082740;28;20462;-81
2020/12/11 04:49:45;;;;;;;20.07;12.50;;;2.30;88.70;;;;;;5079127;28;20468;-83
2020/12/11 04:52:17;;;;;;;23.13;13.37;;;2.40;87.20;;;;;;5074900;28;20459;-81
2020/12/11 04:54:49;;;;;;;19.70;12.87;;;2.40;86.50;;;;;;5073118;28;20526;-80
2020/12/11 04:57:21;;;;;;;23.23;13.87;;;2.40;86.20;;;;;;5072821;28;20525;-82
2020/12/11 04:59:50;;;;;;;25.67;14.53;;;2.40;85.70;;;;;;5079478;28;20480;-81
2020/12/11 05:02:18;;;;;;;19.93;13.17;;;2.40;84.30;;;;;;5068522;28;20470;-82
2020/12/11 05:04:44;;;;;;;21.27;14.23;;;2.40;83.50;;;;;;5073425;28;20469;-81
2020/12/11 05:07:10;;;;;;;20.40;12.40;;;2.40;82.80;;;;;;5074788;28;20459;-83
2020/12/11 05:09:37;;;;;;;22.70;13.23;;;2.50;83.30;;;;;;5074729;28;20499;-81
2020/12/11 05:12:14;;;;;;;19.17;12.93;;;2.40;83.10;;;;;;5071245;28;20445;-81
2020/12/11 05:14:41;;;;;;;20.77;13.07;;;2.40;83.60;;;;;;5073411;28;20470;-81
2020/12/11 05:17:08;;;;;;;21.47;14.67;;;2.40;83.90;;;;;;5073267;28;20526;-82
2020/12/11 05:19:51;;;;;;;24.73;14.23;;;2.40;84.50;;;;;;5075713;28;20448;-81
2020/12/11 05:22:19;;;;;;;22.67;14.37;;;2.40;84.40;;;;;;5077282;28;20461;-82
2020/12/11 05:24:47;;;;;;;24.80;14.47;;;2.40;83.70;;;;;;5079365;28;20465;-83
2020/12/11 05:27:34;;;;;;;20.83;13.03;;;2.40;82.10;;;;;;5081609;28;20480;-84
2020/12/11 05:30:16;;;;;;;22.23;13.87;;;2.40;82.10;;;;;;5082538;28;20471;-81
2020/12/11 05:32:45;;;;;;;22.57;15.00;;;2.40;82.00;;;;;;5066385;28;20553;-82
2020/12/11 05:35:24;;;;;;;20.23;13.63;;;2.30;82.00;;;;;;5072191;28;20481;-81
2020/12/11 05:37:53;;;;;;;20.87;14.60;;;2.30;81.50;;;;;;5067795;28;20452;-81
2020/12/11 05:40:21;;;;;;;22.00;15.07;;;2.40;81.50;;;;;;5072647;28;20430;-81
2020/12/11 05:43:13;;;;;;;21.87;14.03;;;2.40;81.80;;;;;;5062602;28;20482;-81
2020/12/11 05:45:47;;;;;;;19.90;13.50;;;2.40;81.70;;;;;;5060262;28;20493;-80
2020/12/11 05:48:13;;;;;;;23.20;15.47;;;2.40;82.30;;;;;;5063317;28;20535;-83
2020/12/11 05:50:40;;;;;;;24.70;16.30;;;2.30;82.80;;;;;;5076457;28;21019;-81
2020/12/11 05:53:06;;;;;;;20.87;14.63;;;2.30;82.90;;;;;;5075430;28;20464;-82
2020/12/11 05:55:33;;;;;;;22.63;15.63;;;2.40;83.40;;;;;;5076511;28;20466;-82
2020/12/11 05:58:00;;;;;;;21.33;14.53;;;2.40;82.80;;;;;;5071863;28;20968;-82
2020/12/11 06:00:27;;;;;;;21.40;15.47;;;2.40;82.70;;;;;;5074164;28;20450;-81
2020/12/11 06:02:55;;;;;;;19.87;15.73;;;2.30;82.40;;;;;;5069758;28;21553;-81
2020/12/11 06:05:23;;;;;;;23.13;16.83;;;2.30;82.70;;;;;;5069388;28;20447;-81
2020/12/11 06:07:51;;;;;;;26.33;17.20;;;2.30;82.30;;;;;;5065648;28;20494;-82
2020/12/11 06:10:19;;;;;;;20.37;15.23;;;2.30;82.00;;;;;;5058973;28;20471;-81
2020/12/11 06:12:46;;;;;;;19.93;14.43;;;2.30;81.70;;;;;;5064733;28;20453;-82
2020/12/11 06:15:23;;;;;;;20.20;14.47;;;2.30;81.80;;;;;;5063838;28;20492;-81
2020/12/11 06:17:55;;;;;;;18.70;14.13;;;2.20;81.30;;;;;;5065757;28;20459;-81
2020/12/11 06:20:22;;;;;;;22.60;14.83;;;2.20;81.00;;;;;;5063490;28;20473;-83
2020/12/11 06:22:48;;;;;;;20.70;15.10;;;2.20;80.50;;;;;;5064967;28;20449;-82
2020/12/11 06:25:25;;;;;;;21.80;16.30;;;2.20;79.50;;;;;;5058864;28;20448;-83
2020/12/11 06:27:52;;;;;;;20.90;15.40;;;2.30;79.60;;;;;;5062974;28;20476;-81
2020/12/11 06:30:24;;;;;;;19.77;14.30;;;2.10;78.90;;;;;;5068177;28;20470;-81
2020/12/11 06:32:51;;;;;;;23.17;15.40;;;2.10;78.90;;;;;;5063070;28;20449;-80
2020/12/11 06:35:21;;;;;;;22.33;15.57;;;2.10;78.60;;;;;;5067761;28;20458;-82
2020/12/11 06:37:48;;;;;;;26.60;16.83;;;2.10;79.20;;;;;;5082645;28;20472;-81
2020/12/11 06:40:14;;;;;;;22.63;15.03;;;2.10;79.50;;;;;;5075794;28;20437;-81
2020/12/11 06:42:43;;;;;;;25.13;16.13;;;2.10;80.10;;;;;;5072856;28;20450;-82
2020/12/11 06:45:24;;;;;;;26.97;17.00;;;2.10;79.80;;;;;;5065924;28;20965;-82
2020/12/11 06:47:53;;;;;;;27.70;17.87;;;2.10;80.30;;;;;;5064066;28;20672;-83
2020/12/11 06:50:21;;;;;;;28.53;17.30;;;2.10;80.20;;;;;;5069230;28;20474;-82
2020/12/11 06:52:48;;;;;;;25.23;17.50;;;2.10;80.20;;;;;;5067801;28;20476;-82
2020/12/11 06:55:15;;;;;;;28.20;18.43;;;2.10;80.60;;;;;;5071158;28;20921;-79
2020/12/11 06:57:43;;;;;;;27.00;18.17;;;2.20;81.50;;;;;;5076968;28;20445;-82
2020/12/11 07:00:37;;;;;;;31.53;18.40;;;2.10;80.00;;;;;;5070605;28;20457;-81
2020/12/11 07:03:25;;;;;;;29.17;18.30;;;2.10;79.90;;;;;;5072245;28;20874;-82
2020/12/11 07:06:11;;;;;;;28.10;18.27;;;2.10;80.20;;;;;;5067744;28;20466;-81
2020/12/11 07:08:38;;;;;;;26.70;18.47;;;2.10;80.10;;;;;;5067387;28;20457;-81
2020/12/11 07:11:09;;;;;;;27.60;17.00;;;2.10;80.00;;;;;;5066959;28;20456;-80
2020/12/11 07:13:36;;;;;;;30.70;18.90;;;2.10;79.80;;;;;;5065026;28;20520;-81
2020/12/11 07:16:04;;;;;;;24.53;17.03;;;2.00;79.80;;;;;;5065271;28;20513;-80
2020/12/11 07:18:31;;;;;;;26.70;18.10;;;2.10;80.00;;;;;;5069229;28;20446;-80
2020/12/11 07:20:58;;;;;;;29.33;19.27;;;2.10;80.20;;;;;;5069931;28;20451;-82
2020/12/11 07:23:26;;;;;;;27.77;18.70;;;2.10;80.30;;;;;;5073106;28;20444;-83
2020/12/11 07:25:55;;;;;;;34.27;19.17;;;2.10;80.30;;;;;;5065806;28;20450;-82
2020/12/11 07:28:21;;;;;;;27.30;17.83;;;2.20;80.00;;;;;;5072827;28;20451;-82
2020/12/11 07:30:49;;;;;;;28.73;17.47;;;2.10;80.00;;;;;;5073294;28;20466;-82
2020/12/11 07:33:16;;;;;;;29.97;18.37;;;2.20;80.30;;;;;;5067855;28;20462;-83
2020/12/11 07:35:48;;;;;;;30.57;18.90;;;2.20;79.70;;;;;;5076741;28;20445;-83
2020/12/11 07:38:16;;;;;;;24.80;16.97;;;2.20;79.40;;;;;;5081267;28;20485;-82
2020/12/11 07:40:52;;;;;;;35.53;21.00;;;2.20;79.30;;;;;;5067963;28;20480;-82
2020/12/11 07:43:20;;;;;;;34.00;19.57;;;2.30;80.00;;;;;;5065778;28;20498;-82
2020/12/11 07:45:47;;;;;;;27.77;18.30;;;2.30;79.20;;;;;;5070644;28;20531;-81
2020/12/11 07:48:14;;;;;;;25.70;16.87;;;2.40;81.90;;;;;;5076078;28;20549;-83
2020/12/11 07:50:41;;;;;;;25.97;18.60;;;2.50;80.00;;;;;;5082398;28;20467;-83
2020/12/11 07:53:10;;;;;;;29.13;17.60;;;2.40;79.00;;;;;;5081725;28;20447;-83
2020/12/11 07:55:38;;;;;;;27.57;18.27;;;2.40;78.80;;;;;;5087127;28;20514;-82
2020/12/11 07:58:06;;;;;;;27.10;18.40;;;2.40;78.70;;;;;;5073402;28;20468;-81
2020/12/11 08:00:38;;;;;;;27.40;18.00;;;2.30;78.50;;;;;;5086599;28;20446;-82
2020/12/11 08:03:07;;;;;;;26.23;17.80;;;2.30;78.50;;;;;;5074663;28;20466;-83
2020/12/11 08:05:38;;;;;;;24.97;16.90;;;2.40;78.10;;;;;;5080971;28;20452;-82
2020/12/11 08:08:06;;;;;;;28.43;17.40;;;2.30;78.00;;;;;;5071598;28;20448;-81
2020/12/11 08:10:39;;;;;;;26.03;19.47;;;2.40;78.20;;;;;;5067639;28;20465;-80
2020/12/11 08:13:14;;;;;;;24.70;17.07;;;2.50;77.90;;;;;;5072562;28;20950;-81
2020/12/11 08:15:43;;;;;;;22.80;16.53;;;2.40;77.40;;;;;;5073295;28;20520;-82
2020/12/11 08:18:12;;;;;;;27.80;18.87;;;2.40;77.20;;;;;;5077640;28;20461;-81
2020/12/11 08:20:48;;;;;;;24.53;18.57;;;2.40;77.30;;;;;;5079524;28;20455;-81
2020/12/11 08:23:22;;;;;;;26.40;18.10;;;2.50;77.40;;;;;;5075303;28;20463;-80
2020/12/11 08:26:21;;;;;;;25.00;17.50;;;2.60;77.50;;;;;;5082868;28;20484;-80
2020/12/11 08:28:50;;;;;;;21.70;15.93;;;2.60;76.70;;;;;;5076524;28;20506;-79
2020/12/11 08:31:25;;;;;;;22.30;16.57;;;2.50;77.10;;;;;;5071206;28;20451;-80
2020/12/11 08:34:03;;;;;;;24.53;18.33;;;2.60;76.80;;;;;;5069611;28;20449;-81
2020/12/11 08:36:31;;;;;;;24.97;17.40;;;2.70;76.70;;;;;;5072685;28;20479;-82
2020/12/11 08:39:19;;;;;;;29.07;17.43;;;2.80;76.40;;;;;;5075486;28;20527;-81
2020/12/11 08:42:11;;;;;;;25.00;17.27;;;2.80;76.40;;;;;;5075664;28;20554;-80
2020/12/11 08:45:03;;;;;;;25.27;18.23;;;2.90;76.00;;;;;;5076085;28;20461;-81
2020/12/11 08:50:36;;;;;;;21.87;16.50;;;2.90;75.40;;;;;;5034761;28;20551;-80
2020/12/11 08:53:04;;;;;;;22.97;17.53;;;3.00;75.50;;;;;;5029333;28;20500;-80
2020/12/11 08:55:31;;;;;;;24.23;17.50;;;3.00;75.00;;;;;;5047195;28;20537;-80
2020/12/11 08:57:59;;;;;;;24.70;17.27;;;3.00;75.10;;;;;;5070805;28;20487;-81
2020/12/11 09:00:27;;;;;;;24.03;16.97;;;2.70;74.40;;;;;;5071353;28;20771;-81
2020/12/11 09:02:54;;;;;;;25.23;19.07;;;2.80;75.00;;;;;;5068964;28;20450;-81
2020/12/11 09:05:24;;;;;;;27.33;19.03;;;2.90;75.00;;;;;;5063102;28;20542;-79
2020/12/11 09:07:51;;;;;;;24.90;17.90;;;3.00;74.90;;;;;;5069965;28;20447;-80
2020/12/11 09:10:19;;;;;;;25.73;17.40;;;2.80;74.60;;;;;;5073107;28;20477;-79
2020/12/11 09:12:49;;;;;;;23.70;17.43;;;2.80;74.70;;;;;;5068641;28;20455;-79
2020/12/11 09:15:17;;;;;;;25.13;17.07;;;3.00;74.80;;;;;;5058781;28;20475;-79
2020/12/11 09:17:45;;;;;;;23.57;16.57;;;2.90;74.60;;;;;;5067577;28;20453;-80
2020/12/11 09:20:12;;;;;;;23.67;16.80;;;3.10;74.80;;;;;;5061377;28;20812;-79
2020/12/11 09:22:39;;;;;;;22.87;17.57;;;3.10;74.70;;;;;;5063054;28;20456;-80
2020/12/11 09:25:06;;;;;;;21.90;16.20;;;3.10;74.80;;;;;;5059483;28;20456;-79
2020/12/11 09:27:35;;;;;;;21.73;16.70;;;3.10;74.40;;;;;;5056949;28;20478;-81
2020/12/11 09:30:14;;;;;;;22.90;16.97;;;3.20;74.50;;;;;;5063524;28;20504;-81
2020/12/11 09:32:49;;;;;;;22.83;16.30;;;3.30;74.40;;;;;;5060171;28;20448;-79
2020/12/11 09:35:17;;;;;;;21.20;16.73;;;3.30;74.00;;;;;;5061322;28;20453;-79
2020/12/11 09:37:49;;;;;;;23.00;17.00;;;3.30;73.70;;;;;;5064312;28;20461;-79
2020/12/11 09:40:17;;;;;;;22.23;16.33;;;3.40;73.90;;;;;;5062711;28;20554;-79
2020/12/11 09:43:23;;;;;;;22.47;16.40;;;3.30;73.50;;;;;;5061597;28;20454;-79
2020/12/11 09:45:55;;;;;;;23.10;16.33;;;3.30;73.70;;;;;;5058638;28;20465;-81
2020/12/11 09:48:29;;;;;;;22.33;15.67;;;3.40;73.70;;;;;;5059220;28;20454;-80
2020/12/11 09:51:08;;;;;;;22.67;17.57;;;3.50;73.30;;;;;;5061393;28;20853;-79
2020/12/11 09:56:22;;;;;;;23.23;17.50;;;3.70;73.40;;;;;;5046240;28;20456;-81
2020/12/11 09:58:51;;;;;;;21.93;16.10;;;3.80;72.80;;;;;;5065020;28;20469;-81
2020/12/11 10:01:24;;;;;;;23.97;16.60;;;3.60;72.60;;;;;;5062318;28;20489;-81
2020/12/11 10:03:53;;;;;;;24.23;16.40;;;3.70;72.80;;;;;;5060267;28;20474;-82
2020/12/11 10:06:27;;;;;;;23.80;17.43;;;3.70;72.10;;;;;;5061786;28;21045;-81
2020/12/11 10:08:55;;;;;;;24.40;18.00;;;3.60;72.00;;;;;;5063978;28;20888;-80
2020/12/11 10:11:22;;;;;;;27.93;18.77;;;3.30;71.60;;;;;;5065443;28;20482;-79
2020/12/11 10:13:52;;;;;;;25.47;17.47;;;3.50;72.10;;;;;;5059649;28;20494;-79
2020/12/11 10:16:19;;;;;;;24.67;16.97;;;3.50;72.10;;;;;;5068681;28;20447;-81
2020/12/11 10:18:46;;;;;;;25.60;17.77;;;3.60;72.10;;;;;;5061288;28;20447;-80
2020/12/11 10:21:13;;;;;;;21.77;16.80;;;3.70;72.10;;;;;;5063655;28;20457;-81
2020/12/11 10:23:41;;;;;;;23.60;16.73;;;3.70;71.70;;;;;;5053965;28;20461;-81
2020/12/11 10:26:08;;;;;;;23.40;17.70;;;3.60;71.80;;;;;;5063477;28;20459;-80
2020/12/11 10:28:35;;;;;;;24.67;18.23;;;3.70;71.80;;;;;;5066691;28;20455;-80
2020/12/11 10:31:02;;;;;;;23.17;16.67;;;3.80;71.60;;;;;;5061839;28;20558;-80
2020/12/11 10:33:29;;;;;;;27.10;19.20;;;3.90;71.60;;;;;;5064241;28;20536;-80
2020/12/11 10:35:56;;;;;;;26.40;17.63;;;3.80;71.20;;;;;;5060236;28;20501;-81
2020/12/11 10:38:26;;;;;;;24.93;17.20;;;4.00;71.40;;;;;;5064135;28;20444;-82
2020/12/11 10:40:56;;;;;;;26.80;17.53;;;3.80;70.90;;;;;;5067935;28;20926;-81
2020/12/11 10:43:26;;;;;;;24.23;18.50;;;3.90;71.40;;;;;;5067840;28;20470;-81
2020/12/11 10:45:53;;;;;;;25.03;18.37;;;3.90;71.50;;;;;;5061604;28;20467;-81
2020/12/11 10:48:20;;;;;;;23.70;17.70;;;3.90;70.90;;;;;;5064693;28;20461;-81
2020/12/11 10:50:48;;;;;;;22.67;16.40;;;3.80;71.20;;;;;;5068672;28;20554;-80
2020/12/11 10:53:14;;;;;;;24.50;18.20;;;3.80;71.20;;;;;;5065744;28;20466;-81
2020/12/11 10:55:41;;;;;;;25.67;18.17;;;3.90;71.40;;;;;;5072578;28;20489;-81
2020/12/11 10:58:09;;;;;;;26.10;18.40;;;4.00;71.30;;;;;;5076168;28;20448;-82
2020/12/11 11:00:36;;;;;;;24.43;17.60;;;4.10;71.30;;;;;;5076157;28;20508;-81
2020/12/11 11:03:03;;;;;;;24.53;18.27;;;4.00;70.70;;;;;;5081885;28;20471;-79
2020/12/11 11:05:30;;;;;;;23.73;17.43;;;3.90;71.00;;;;;;5075628;28;20466;-81
2020/12/11 11:08:00;;;;;;;27.53;19.13;;;3.90;70.70;;;;;;5074926;28;20504;-80
2020/12/11 11:10:32;;;;;;;27.80;19.20;;;3.80;70.80;;;;;;5071266;28;20470;-80
2020/12/11 11:13:10;;;;;;;24.60;17.80;;;3.90;70.90;;;;;;5074760;28;20537;-80
2020/12/11 11:15:47;;;;;;;23.23;16.90;;;4.00;71.00;;;;;;5070699;28;20505;-80
2020/12/11 11:24:13;;;;;;;23.60;17.20;;;4.20;70.60;;;;;;5056368;28;20452;-80
2020/12/11 11:29:21;;;;;;;31.13;18.13;;;4.00;70.10;;;;;;5069759;28;20474;-79
2020/12/11 11:31:51;;;;;;;23.10;17.47;;;4.00;70.00;;;;;;5064180;28;20481;-81
2020/12/11 11:34:17;;;;;;;24.67;17.47;;;4.10;70.70;;;;;;5063591;28;20490;-81
2020/12/11 11:36:49;;;;;;;27.33;18.60;;;4.10;70.00;;;;;;5073204;28;20946;-80
2020/12/11 11:39:16;;;;;;;29.60;17.63;;;4.20;70.00;;;;;;5074921;28;20460;-81
2020/12/11 11:41:46;;;;;;;23.93;16.97;;;4.20;70.20;;;;;;5071933;28;20453;-79
2020/12/11 11:47:00;;;;;;;27.70;17.80;;;4.10;69.80;;;;;;5071475;28;20447;-81
2020/12/11 11:49:31;;;;;;;23.57;17.30;;;4.00;70.10;;;;;;5086292;28;20471;-80
2020/12/11 11:52:11;;;;;;;30.73;20.70;;;3.90;70.20;;;;;;5079859;28;20482;-82
2020/12/11 11:54:37;;;;;;;30.73;20.50;;;4.10;70.40;;;;;;5078831;28;20546;-81
2020/12/11 11:57:04;;;;;;;23.70;18.40;;;4.30;70.30;;;;;;5077256;28;20498;-82
2020/12/11 11:59:31;;;;;;;25.23;18.70;;;4.40;70.00;;;;;;5089608;28;20473;-80
2020/12/11 12:02:00;;;;;;;28.13;18.47;;;4.30;69.90;;;;;;5077077;28;20485;-81
2020/12/11 12:04:26;;;;;;;24.80;17.27;;;4.20;69.90;;;;;;5076622;28;20467;-81
2020/12/11 12:06:53;;;;;;;23.87;16.80;;;4.20;70.00;;;;;;5079231;28;20471;-82
2020/12/11 12:09:20;;;;;;;28.03;18.40;;;4.30;69.90;;;;;;5076219;28;20472;-81
2020/12/11 12:11:47;;;;;;;25.07;18.47;;;4.40;69.80;;;;;;5069351;28;20918;-81
2020/12/11 12:14:14;;;;;;;25.17;18.00;;;4.40;69.70;;;;;;5065723;28;20558;-80
2020/12/11 12:16:42;;;;;;;26.03;16.77;;;4.40;69.80;;;;;;5067531;28;21019;-81
2020/12/11 12:19:14;;;;;;;25.70;17.97;;;4.50;69.90;;;;;;5061569;28;20520;-82
2020/12/11 12:22:04;;;;;;;25.57;17.47;;;4.60;69.90;;;;;;5065016;28;20456;-82
2020/12/11 12:27:32;;;;;;;25.10;16.67;;;4.40;69.60;;;;;;5065223;28;20468;-80
2020/12/11 12:29:59;;;;;;;24.70;16.30;;;4.20;69.30;;;;;;5069502;28;20491;-79
2020/12/11 12:32:28;;;;;;;24.80;17.30;;;4.10;69.70;;;;;;5064070;28;20466;-79
2020/12/11 12:34:56;;;;;;;23.77;17.07;;;4.10;69.80;;;;;;5064408;28;20571;-78
2020/12/11 12:45:37;;;;;;;22.73;16.30;;;3.90;70.00;;;;;;5064612;28;20465;-78
2020/12/11 12:48:03;;;;;;;25.23;17.30;;;3.90;70.40;;;;;;5069967;28;21037;-79
2020/12/11 12:50:31;;;;;;;25.93;17.97;;;3.90;70.30;;;;;;5061379;28;20476;-79
2020/12/11 12:52:57;;;;;;;21.90;17.23;;;3.90;70.20;;;;;;5066175;28;20543;-79
2020/12/11 12:55:38;;;;;;;29.73;17.57;;;4.00;71.20;;;;;;5061768;28;20500;-78
2020/12/11 12:58:05;;;;;;;21.93;17.20;;;4.00;70.70;;;;;;5067564;28;20455;-78
2020/12/11 13:00:44;;;;;;;24.10;16.03;;;4.10;70.70;;;;;;5056375;28;20453;-79
2020/12/11 13:03:25;;;;;;;22.47;15.87;;;4.00;70.30;;;;;;5057256;28;20451;-79
2020/12/11 13:05:52;;;;;;;26.00;18.10;;;3.90;70.30;;;;;;5058434;28;20460;-78
2020/12/11 13:08:19;;;;;;;22.13;16.77;;;3.80;70.70;;;;;;5063637;28;20489;-80
2020/12/11 13:10:48;;;;;;;22.43;16.80;;;3.90;70.60;;;;;;5061994;28;20765;-79
2020/12/11 13:13:17;;;;;;;22.57;16.80;;;3.80;70.80;;;;;;5063475;28;20455;-78